Wasta, South Dakota
Current Conditions -  °F | °C
As of 3:52 AM on Sunday 23 Nov 2014 (Local Time) from KRAP Reporting Station
Clear Clear  
Wind Chill: 24°   Ceiling: Unl
Heat Index: 34°   Visibility: 10mi
Dew Point: 21°   Wind: 15mph
Humidity: 59%   Direction: 320°NW
Pressure: 29.62"   Gusts: NA
Location:  44.07°N, 102.45°W
Report Text: KRAP 231052Z AUTO 32013KT 10SM CLR 01/M06 A2962 RMK AO2 SLP039 T00111061 PNO $
Loading
Personal Weather Stations






























Interactive Weather Map New forecast layout! Learn more

10-Day Weather Forecast

Advertisements
Track Severe Weather on mobile